Terminal Aerodrome Forecast
Issued by NWS

Home | Current Version | Previous Version | Text Only | Print | Product List | Glossary On
Versions: 1 2 3 4 5 6 7 8 9 10 11 12 13 14 15 16 17 18 19 20 21 22 23 24 25 26 27
000
FTUS41 KCAR 240307 AAA
TAFHUL
TAF AMD
KHUL 240307Z 2403/2424 20008KT P6SM BKN100 WS020/24050KT
     FM240500 25008KT P6SM OVC025
     FM240800 32010KT P6SM BKN050
     FM241800 32008KT P6SM SCT050=

USA.gov is the U.S. government's official web portal to all federal, state and local government web resources and services.